Time;durP1;ratioP1;P1;durP2;ratioP2;P2;SDS_P1;SDS_P2;PMS_P1;PMS_P2;Temp;Humidity;BMP_temperature;BMP_pressure;BME280_temperature;BME280_humidity;BME280_pressure;Samples;Min_cycle;Max_cycle;Signal;HPM_P1;HPM_P2
2023/03/03 00:02:04;;;;;;;18.58;9.35;;;;;;;-146.27;100.00;48395.59;5093266;28;20060;-74
2023/03/03 00:04:29;;;;;;;26.10;10.77;;;;;;;-146.27;100.00;48419.50;5094229;28;20039;-73
2023/03/03 00:06:54;;;;;;;21.83;10.27;;;;;;;-146.27;100.00;48381.66;5091957;28;20066;-74
2023/03/03 00:09:20;;;;;;;20.88;9.70;;;;;;;-146.27;100.00;48437.44;5089486;28;20172;-75
2023/03/03 00:11:48;;;;;;;20.52;9.98;;;;;;;-146.27;100.00;48415.53;5091743;28;20031;-74
2023/03/03 00:14:32;;;;;;;26.30;10.27;;;;;;;-146.27;100.00;48385.66;5090877;28;20020;-74
2023/03/03 00:17:00;;;;;;;22.73;11.10;;;;;;;-146.27;100.00;48425.47;5089404;28;20379;-75
2023/03/03 00:19:26;;;;;;;21.25;9.55;;;;;;;-146.27;100.00;48427.47;5089291;28;20077;-75
2023/03/03 00:21:55;;;;;;;19.45;10.07;;;;;;;-146.27;100.00;48409.53;5089660;28;20514;-74
2023/03/03 00:24:42;;;;;;;19.00;10.05;;;;;;;-146.27;100.00;48361.75;5090052;28;20027;-74
2023/03/03 00:27:28;;;;;;;19.30;9.15;;;;;;;-146.27;100.00;48379.66;5089036;28;20031;-74
2023/03/03 00:29:59;;;;;;;20.70;9.73;;;;;;;-146.27;100.00;48419.50;5082988;28;20052;-74
2023/03/03 00:32:35;;;;;;;20.42;10.35;;;;;;;-146.27;100.00;48383.66;5088431;28;20024;-74
2023/03/03 00:35:22;;;;;;;23.00;10.43;;;;;;;-146.27;100.00;48421.50;5085958;28;20056;-73
2023/03/03 00:37:49;;;;;;;24.50;10.90;;;;;;;-146.27;100.00;48427.47;5082105;28;20089;-73
2023/03/03 00:40:26;;;;;;;24.58;11.25;;;;;;;-146.27;100.00;48391.63;5087733;28;20023;-74
2023/03/03 00:42:58;;;;;;;20.90;10.68;;;;;;;-146.27;100.00;48393.63;5088751;28;20028;-76
2023/03/03 00:45:27;;;;;;;20.95;9.70;;;;;;;-146.27;100.00;48419.50;5091615;28;20024;-74
2023/03/03 00:47:53;;;;;;;22.67;11.23;;;;;;;-146.27;100.00;48391.63;5091738;28;20074;-74
2023/03/03 00:50:30;;;;;;;23.00;11.48;;;;;;;-146.27;100.00;48463.31;5083222;28;20047;-75
2023/03/03 00:53:02;;;;;;;22.80;10.95;;;;;;;-146.27;100.00;48435.44;5083828;28;20139;-74
2023/03/03 00:55:28;;;;;;;22.85;11.18;;;;;;;-146.27;100.00;48395.59;5091177;28;20024;-75
2023/03/03 00:57:53;;;;;;;24.83;9.27;;;;;;;-146.27;100.00;48443.41;5090458;28;20032;-75
2023/03/03 01:00:19;;;;;;;19.83;10.20;;;;;;;-146.27;100.00;48433.44;5091021;28;20020;-75
2023/03/03 01:02:45;;;;;;;22.10;10.82;;;;;;;-146.27;100.00;48415.53;5091088;28;20032;-75
2023/03/03 01:05:12;;;;;;;20.65;9.93;;;;;;;-146.27;100.00;48423.50;5097648;28;20407;-74
2023/03/03 01:07:38;;;;;;;21.92;9.77;;;;;;;-146.27;100.00;48447.38;5093280;28;20115;-75
2023/03/03 01:10:03;;;;;;;20.50;9.48;;;;;;;-146.27;100.00;48395.59;5089464;28;20115;-75
2023/03/03 01:12:29;;;;;;;17.98;9.32;;;;;;;-146.27;100.00;48415.53;5089938;28;20081;-75
2023/03/03 01:14:55;;;;;;;23.88;9.65;;;;;;;-146.27;100.00;48415.53;5089807;28;20468;-75
2023/03/03 01:17:21;;;;;;;21.10;8.73;;;;;;;-146.27;100.00;48427.47;5089258;28;20051;-77
2023/03/03 01:19:47;;;;;;;23.20;9.25;;;;;;;-146.27;100.00;48417.50;5079103;28;20042;-75
2023/03/03 01:22:12;;;;;;;19.77;9.32;;;;;;;-146.27;100.00;48385.66;5089173;28;20426;-75
2023/03/03 01:24:38;;;;;;;18.60;9.02;;;;;;;-146.27;100.00;48417.50;5086455;28;20023;-74
2023/03/03 01:27:03;;;;;;;14.35;8.25;;;;;;;-146.27;100.00;48391.63;5091425;28;20016;-75
2023/03/03 01:29:28;;;;;;;18.27;8.52;;;;;;;-146.27;100.00;48423.50;5083377;28;20383;-75
2023/03/03 01:31:54;;;;;;;17.98;8.73;;;;;;;-146.27;100.00;48367.72;5089242;28;20487;-74
2023/03/03 01:34:19;;;;;;;16.42;8.65;;;;;;;-146.27;100.00;48409.53;5092249;28;20085;-73
2023/03/03 01:36:44;;;;;;;17.48;8.57;;;;;;;-146.27;100.00;48415.53;5092978;28;20043;-75
2023/03/03 01:39:11;;;;;;;15.40;8.77;;;;;;;-146.27;100.00;48435.44;5094190;28;20031;-74
2023/03/03 01:41:36;;;;;;;23.05;8.77;;;;;;;-146.27;100.00;48451.38;5092399;28;20472;-76
2023/03/03 01:44:02;;;;;;;16.45;8.45;;;;;;;-146.27;100.00;48399.59;5093150;28;20077;-74
2023/03/03 01:47:03;;;;;;;18.77;8.57;;;;;;;-146.27;100.00;48391.63;5090354;28;20028;-75
2023/03/03 01:49:38;;;;;;;16.70;7.85;;;;;;;-146.27;100.00;48409.53;5089825;28;20067;-75
2023/03/03 01:52:12;;;;;;;14.65;8.38;;;;;;;-146.27;100.00;48403.56;5093080;28;20106;-74
2023/03/03 01:54:43;;;;;;;12.43;7.55;;;;;;;-146.27;100.00;48435.44;5091580;28;20028;-73
2023/03/03 01:57:24;;;;;;;13.25;7.00;;;;;;;-146.27;100.00;48407.56;5087392;28;20028;-76
2023/03/03 01:59:52;;;;;;;16.23;7.72;;;;;;;-146.27;100.00;48409.53;5085411;28;20491;-74
2023/03/03 02:02:18;;;;;;;15.75;7.15;;;;;;;-146.27;100.00;48407.56;5088197;28;20429;-75
2023/03/03 02:04:43;;;;;;;15.60;7.70;;;;;;;-146.27;100.00;48403.56;5088503;28;20032;-74
2023/03/03 02:07:10;;;;;;;13.30;6.72;;;;;;;-146.27;100.00;48405.56;5090177;28;20028;-74
2023/03/03 02:09:41;;;;;;;13.40;8.10;;;;;;;-146.27;100.00;48431.47;5093087;28;20127;-74
2023/03/03 02:12:10;;;;;;;17.98;7.38;;;;;;;-146.27;100.00;48415.53;5090486;28;20032;-73
2023/03/03 02:14:36;;;;;;;17.85;7.25;;;;;;;-146.27;100.00;48427.47;5083087;28;20572;-75
2023/03/03 02:17:01;;;;;;;16.50;6.95;;;;;;;-146.27;100.00;48443.41;5090996;28;20107;-74
2023/03/03 02:19:42;;;;;;;12.75;6.97;;;;;;;-146.27;100.00;48383.66;5093048;28;20028;-74
2023/03/03 02:22:08;;;;;;;15.40;7.75;;;;;;;-146.27;100.00;48407.56;5094296;28;20030;-74
2023/03/03 02:24:40;;;;;;;14.98;6.70;;;;;;;-146.27;100.00;48411.53;5093248;28;20020;-76
2023/03/03 02:27:06;;;;;;;15.60;7.43;;;;;;;-146.27;100.00;48417.50;5091394;28;20028;-74
2023/03/03 02:29:31;;;;;;;14.60;6.25;;;;;;;-146.27;100.00;48421.50;5091816;28;20027;-75
2023/03/03 02:31:57;;;;;;;12.20;6.43;;;;;;;-146.27;100.00;48397.59;5092342;28;20026;-76
2023/03/03 02:34:23;;;;;;;13.20;7.05;;;;;;;-146.27;100.00;48439.41;5092986;28;20046;-76
2023/03/03 02:36:48;;;;;;;15.57;7.60;;;;;;;-146.27;100.00;48417.50;5086019;28;20131;-76
2023/03/03 02:39:25;;;;;;;14.93;6.97;;;;;;;-146.27;100.00;48463.31;5086983;28;20530;-75
2023/03/03 02:42:04;;;;;;;19.92;7.45;;;;;;;-146.27;100.00;48439.41;5101996;28;20454;-75
2023/03/03 02:44:32;;;;;;;13.02;7.57;;;;;;;-146.27;100.00;48427.47;5091383;28;20020;-75
2023/03/03 02:46:58;;;;;;;14.80;7.18;;;;;;;-146.27;100.00;48419.50;5091943;28;20020;-76
2023/03/03 02:49:29;;;;;;;12.98;7.10;;;;;;;-146.27;100.00;48399.59;5083667;28;20081;-74
2023/03/03 02:51:55;;;;;;;20.52;7.60;;;;;;;-146.27;100.00;48443.41;5086815;28;20035;-76
2023/03/03 02:54:22;;;;;;;17.08;7.90;;;;;;;-146.27;100.00;48401.56;5090870;28;20036;-75
2023/03/03 02:56:48;;;;;;;13.30;6.97;;;;;;;-146.27;100.00;48449.38;5091102;28;20023;-74
2023/03/03 02:59:13;;;;;;;16.58;7.60;;;;;;;-146.27;100.00;48427.47;5096221;28;20110;-76
2023/03/03 03:01:39;;;;;;;12.23;7.70;;;;;;;-146.27;100.00;48445.41;5097952;28;20023;-74
2023/03/03 03:04:11;;;;;;;13.02;7.28;;;;;;;-146.27;100.00;48407.56;5091008;28;20030;-74
2023/03/03 03:06:37;;;;;;;10.57;6.97;;;;;;;-146.27;100.00;48425.47;5089665;28;20028;-75
2023/03/03 03:09:05;;;;;;;10.95;6.93;;;;;;;-146.27;100.00;48443.41;5090540;28;20024;-75
2023/03/03 03:11:30;;;;;;;13.35;7.70;;;;;;;-146.27;100.00;48415.53;5091984;28;20031;-75
2023/03/03 03:13:56;;;;;;;20.70;7.15;;;;;;;-146.27;100.00;48431.47;5096750;28;20028;-74
2023/03/03 03:16:21;;;;;;;10.95;7.22;;;;;;;-146.27;100.00;48451.38;5091243;28;20031;-75
2023/03/03 03:18:47;;;;;;;11.82;6.35;;;;;;;-146.27;100.00;48407.56;5091044;28;20176;-75
2023/03/03 03:21:14;;;;;;;17.02;7.18;;;;;;;-146.27;100.00;48443.41;5091717;28;20020;-75
2023/03/03 03:23:39;;;;;;;17.48;8.38;;;;;;;-146.27;100.00;48389.63;5090000;28;20032;-74
2023/03/03 03:26:05;;;;;;;17.38;7.53;;;;;;;-146.27;100.00;48469.31;5090310;28;20039;-75
2023/03/03 03:28:31;;;;;;;16.25;7.43;;;;;;;-146.27;100.00;48437.44;5073507;28;20093;-75
2023/03/03 03:30:57;;;;;;;15.73;6.95;;;;;;;-146.27;100.00;48435.44;5090640;28;20016;-75
2023/03/03 03:33:23;;;;;;;15.65;7.03;;;;;;;-146.27;100.00;48429.47;5089891;28;20102;-75
2023/03/03 03:35:49;;;;;;;14.90;8.00;;;;;;;-146.27;100.00;48435.44;5089105;28;20145;-75
2023/03/03 03:38:15;;;;;;;14.90;7.40;;;;;;;-146.27;100.00;48411.53;5091267;28;20031;-76
2023/03/03 03:40:41;;;;;;;12.48;7.68;;;;;;;-146.27;100.00;48439.41;5092683;28;20027;-75
2023/03/03 03:43:07;;;;;;;14.98;8.27;;;;;;;-146.27;100.00;48435.44;5089125;28;20028;-76
2023/03/03 03:45:33;;;;;;;19.38;8.93;;;;;;;-146.27;100.00;48423.50;5092880;28;20027;-74
2023/03/03 03:47:58;;;;;;;19.50;8.55;;;;;;;-146.27;100.00;48407.56;5091739;28;20107;-74
2023/03/03 03:50:24;;;;;;;20.95;8.45;;;;;;;-146.27;100.00;48425.47;5090413;28;20059;-74
2023/03/03 03:52:49;;;;;;;15.10;8.45;;;;;;;-146.27;100.00;48401.56;5090493;28;20041;-75
2023/03/03 03:55:14;;;;;;;21.73;8.57;;;;;;;-146.27;100.00;48399.59;5088046;28;20031;-73
2023/03/03 03:57:41;;;;;;;21.92;9.27;;;;;;;-146.27;100.00;48415.53;5085536;28;20127;-75
2023/03/03 04:00:08;;;;;;;14.65;8.98;;;;;;;-146.27;100.00;48451.38;5092715;28;20098;-75
2023/03/03 04:02:34;;;;;;;20.20;9.88;;;;;;;-146.27;100.00;48435.44;5085965;28;20028;-75
2023/03/03 04:04:59;;;;;;;21.77;10.38;;;;;;;-146.27;100.00;48395.59;5091078;28;20044;-75
2023/03/03 04:07:25;;;;;;;27.00;10.52;;;;;;;-146.27;100.00;48439.41;5090085;28;20043;-76
2023/03/03 04:09:50;;;;;;;24.27;10.88;;;;;;;-146.27;100.00;48415.53;5087326;28;20031;-74
2023/03/03 04:12:16;;;;;;;21.90;10.55;;;;;;;-146.27;100.00;48459.34;5078407;28;20035;-74
2023/03/03 04:14:42;;;;;;;24.48;10.02;;;;;;;-146.27;100.00;48423.50;5078767;28;20031;-75
2023/03/03 04:17:18;;;;;;;16.20;8.95;;;;;;;-146.27;100.00;48415.53;5087874;28;20073;-74
2023/03/03 04:19:44;;;;;;;16.92;8.45;;;;;;;-146.27;100.00;48477.25;5076288;28;20472;-74
2023/03/03 04:22:11;;;;;;;22.80;9.73;;;;;;;-146.27;100.00;48397.59;5087365;28;20023;-74
2023/03/03 04:24:37;;;;;;;18.27;8.93;;;;;;;-146.27;100.00;48405.56;5091026;28;20112;-75
2023/03/03 04:27:02;;;;;;;16.98;9.30;;;;;;;-146.27;100.00;48359.75;5081261;28;20473;-73
2023/03/03 04:29:28;;;;;;;19.98;9.70;;;;;;;-146.27;100.00;48439.41;5083166;28;20032;-75
2023/03/03 04:31:53;;;;;;;17.98;9.50;;;;;;;-146.27;100.00;48399.59;5090488;28;20012;-74
2023/03/03 04:34:19;;;;;;;23.75;10.30;;;;;;;-146.27;100.00;48411.53;5089468;28;20084;-74
2023/03/03 04:36:44;;;;;;;24.30;10.15;;;;;;;-146.27;100.00;48407.56;5081306;28;20075;-75
2023/03/03 04:39:10;;;;;;;22.33;10.73;;;;;;;-146.27;100.00;48441.41;5084071;28;20035;-73
2023/03/03 04:41:35;;;;;;;18.40;10.18;;;;;;;-146.27;100.00;48419.50;5089550;28;20460;-74
2023/03/03 04:44:01;;;;;;;19.40;9.95;;;;;;;-146.27;100.00;48435.44;5085089;28;20043;-75
2023/03/03 04:46:26;;;;;;;19.25;10.05;;;;;;;-146.27;100.00;48411.53;5091729;28;20038;-74
2023/03/03 04:48:52;;;;;;;32.20;12.10;;;;;;;-146.27;100.00;48405.56;5089616;28;20030;-77
2023/03/03 04:51:17;;;;;;;22.55;9.95;;;;;;;-146.27;100.00;48427.47;5090027;28;20024;-75
2023/03/03 04:53:43;;;;;;;27.77;10.07;;;;;;;-146.27;100.00;48427.47;5091689;28;20028;-75
2023/03/03 04:56:08;;;;;;;23.77;11.38;;;;;;;-146.27;100.00;48411.53;5081371;28;20112;-75
2023/03/03 04:58:33;;;;;;;69.47;12.15;;;;;;;-146.27;100.00;48421.50;5085589;28;20073;-75
2023/03/03 05:00:59;;;;;;;25.42;10.82;;;;;;;-146.27;100.00;48383.66;5086919;28;20023;-75
2023/03/03 05:03:25;;;;;;;29.88;11.48;;;;;;;-146.27;100.00;48443.41;5089305;28;20026;-74
2023/03/03 05:05:51;;;;;;;36.10;12.00;;;;;;;-146.27;100.00;48427.47;5090611;28;20048;-76
2023/03/03 05:08:16;;;;;;;29.30;11.95;;;;;;;-146.27;100.00;48445.41;5089702;28;20020;-74
2023/03/03 05:10:42;;;;;;;26.30;12.55;;;;;;;-146.27;100.00;48449.38;5085831;28;20036;-75
2023/03/03 05:13:08;;;;;;;22.02;10.38;;;;;;;-146.27;100.00;48391.63;5092709;28;20031;-75
2023/03/03 05:15:33;;;;;;;22.00;11.45;;;;;;;-146.27;100.00;48409.53;5079849;28;20028;-74
2023/03/03 05:17:59;;;;;;;28.60;12.40;;;;;;;-146.27;100.00;48403.56;5094342;28;20477;-74
2023/03/03 05:20:25;;;;;;;26.73;11.95;;;;;;;-146.27;100.00;48435.44;5090326;28;20055;-75
2023/03/03 05:22:50;;;;;;;25.70;14.05;;;;;;;-146.27;100.00;48423.50;5083179;28;20040;-75
2023/03/03 05:25:16;;;;;;;36.22;12.88;;;;;;;-146.27;100.00;48427.47;5102626;28;20024;-76
2023/03/03 05:27:42;;;;;;;25.02;12.75;;;;;;;-146.27;100.00;48419.50;5087713;28;20091;-75
2023/03/03 05:30:09;;;;;;;34.72;14.25;;;;;;;-146.27;100.00;48423.50;5085127;28;20035;-74
2023/03/03 05:32:35;;;;;;;29.73;13.18;;;;;;;-146.27;100.00;48387.63;5103253;28;20123;-75
2023/03/03 05:35:00;;;;;;;29.02;12.73;;;;;;;-146.27;100.00;48451.38;5098448;28;20028;-75
2023/03/03 05:37:26;;;;;;;30.17;13.05;;;;;;;-146.27;100.00;48421.50;5092867;28;20078;-73
2023/03/03 05:39:51;;;;;;;33.28;12.70;;;;;;;-146.27;100.00;48427.47;5093572;28;20028;-75
2023/03/03 05:42:17;;;;;;;33.25;14.02;;;;;;;-146.27;100.00;48391.63;5094688;28;20077;-75
2023/03/03 05:44:42;;;;;;;35.08;14.13;;;;;;;-146.27;100.00;48419.50;5092438;28;20101;-74
2023/03/03 05:47:08;;;;;;;30.63;13.90;;;;;;;-146.27;100.00;48427.47;5094260;28;20031;-76
2023/03/03 05:49:34;;;;;;;35.40;13.70;;;;;;;-146.27;100.00;48415.53;5086670;28;20031;-73
2023/03/03 05:51:59;;;;;;;38.13;15.00;;;;;;;-146.27;100.00;48395.59;5099052;28;20027;-73
2023/03/03 05:54:25;;;;;;;32.90;13.15;;;;;;;-146.27;100.00;48403.56;5095466;28;20085;-74
2023/03/03 05:56:50;;;;;;;50.35;13.45;;;;;;;-146.27;100.00;48427.47;5082710;28;20078;-74
2023/03/03 05:59:16;;;;;;;30.67;12.90;;;;;;;-146.27;100.00;48431.47;5092264;28;20500;-75
2023/03/03 06:01:43;;;;;;;41.60;13.23;;;;;;;-146.27;100.00;48411.53;5097731;28;20074;-74
2023/03/03 06:04:08;;;;;;;30.33;14.15;;;;;;;-146.27;100.00;48397.59;5094085;28;20020;-74
2023/03/03 06:06:34;;;;;;;29.80;12.85;;;;;;;-146.27;100.00;48453.38;5099266;28;20035;-75
2023/03/03 06:08:59;;;;;;;41.33;14.80;;;;;;;-146.27;100.00;48407.56;5093031;28;20036;-75
2023/03/03 06:11:24;;;;;;;39.10;14.65;;;;;;;-146.27;100.00;48437.44;5095022;28;20028;-75
2023/03/03 06:13:50;;;;;;;33.75;14.07;;;;;;;-146.27;100.00;48419.50;5094381;28;20093;-74
2023/03/03 06:16:16;;;;;;;56.90;14.48;;;;;;;-146.27;100.00;48429.47;5092180;28;20451;-75
2023/03/03 06:18:41;;;;;;;45.42;15.00;;;;;;;-146.27;100.00;48405.56;5081231;28;20495;-74
2023/03/03 06:21:07;;;;;;;39.20;14.93;;;;;;;-146.27;100.00;48403.56;5092808;28;20073;-76
2023/03/03 06:23:32;;;;;;;29.88;14.13;;;;;;;-146.27;100.00;48379.66;5093490;28;20450;-75
2023/03/03 06:25:57;;;;;;;39.35;15.07;;;;;;;-146.27;100.00;48399.59;5093792;28;20028;-73
2023/03/03 06:28:23;;;;;;;48.42;15.07;;;;;;;-146.27;100.00;48403.56;5092098;28;20051;-75
2023/03/03 06:30:53;;;;;;;46.90;15.13;;;;;;;-146.27;100.00;48411.53;5089220;28;20020;-75
2023/03/03 06:33:19;;;;;;;44.80;15.85;;;;;;;-146.27;100.00;48397.59;5089248;28;20028;-74
2023/03/03 06:35:49;;;;;;;44.78;15.52;;;;;;;-146.27;100.00;48423.50;5094619;28;20498;-76
2023/03/03 06:38:14;;;;;;;38.08;14.82;;;;;;;-146.27;100.00;48423.50;5090615;28;20035;-76
2023/03/03 06:40:39;;;;;;;61.53;14.55;;;;;;;-146.27;100.00;48443.41;5088494;28;20024;-75
2023/03/03 06:43:05;;;;;;;57.33;15.18;;;;;;;-146.27;100.00;48467.31;5091743;28;20062;-78
2023/03/03 06:45:30;;;;;;;41.90;13.90;;;;;;;-146.27;100.00;48411.53;5082928;28;20034;-78
2023/03/03 06:47:55;;;;;;;40.55;15.13;;;;;;;-146.27;100.00;48393.63;5085709;28;20379;-76
2023/03/03 06:50:21;;;;;;;66.38;14.63;;;;;;;-146.27;100.00;48451.38;5092861;28;20024;-78
2023/03/03 06:52:46;;;;;;;39.03;14.75;;;;;;;-146.27;100.00;48403.56;5093388;28;20039;-78
2023/03/03 06:55:22;;;;;;;46.15;15.70;;;;;;;-146.27;100.00;48423.50;5094347;28;20093;-77
2023/03/03 06:57:47;;;;;;;54.67;15.82;;;;;;;-146.27;100.00;48399.59;5095691;28;20382;-80
2023/03/03 07:00:26;;;;;;;39.40;15.05;;;;;;;-146.27;100.00;48413.53;5090289;28;20032;-75
2023/03/03 07:03:11;;;;;;;59.67;15.65;;;;;;;-146.27;100.00;48391.63;5087897;28;20040;-75
2023/03/03 07:05:36;;;;;;;58.33;14.95;;;;;;;-146.27;100.00;48415.53;5087816;28;20040;-74
2023/03/03 07:08:05;;;;;;;51.83;15.32;;;;;;;-146.27;100.00;48419.50;5088932;28;20383;-76
2023/03/03 07:10:31;;;;;;;44.55;15.35;;;;;;;-146.27;100.00;48377.69;5087240;28;20035;-75
2023/03/03 07:13:15;;;;;;;36.63;15.18;;;;;;;-146.27;100.00;48443.41;5086398;28;20028;-74
2023/03/03 07:15:40;;;;;;;39.03;14.35;;;;;;;-146.27;100.00;48441.41;5090563;28;20115;-77
2023/03/03 07:18:35;;;;;;;51.50;14.82;;;;;;;-146.27;100.00;48419.50;5089830;28;20507;-75
2023/03/03 07:21:31;;;;;;;39.50;14.23;;;;;;;-146.27;100.00;48427.47;5075890;28;20036;-74
2023/03/03 07:23:58;;;;;;;36.70;14.40;;;;;;;-146.27;100.00;48403.56;5087079;28;20490;-75
2023/03/03 07:26:29;;;;;;;47.80;15.10;;;;;;;-146.27;100.00;48407.56;5090203;28;20028;-75
2023/03/03 07:29:13;;;;;;;30.40;14.05;;;;;;;-146.27;100.00;48409.53;5089773;28;20110;-75
2023/03/03 07:31:40;;;;;;;52.53;14.88;;;;;;;-146.27;100.00;48443.41;5066949;28;20070;-77
2023/03/03 07:34:29;;;;;;;37.00;14.35;;;;;;;-146.27;100.00;48419.50;5087426;28;20425;-76
2023/03/03 07:37:04;;;;;;;36.25;14.20;;;;;;;-146.27;100.00;48427.47;5085544;28;20375;-76
2023/03/03 07:39:43;;;;;;;35.17;14.55;;;;;;;-146.27;100.00;48415.53;5086537;28;20032;-74
2023/03/03 07:42:18;;;;;;;34.50;13.20;;;;;;;-146.27;100.00;48379.66;5078697;28;20024;-75
2023/03/03 07:44:44;;;;;;;43.33;13.35;;;;;;;-146.27;100.00;48443.41;5084708;28;20028;-76
2023/03/03 07:47:26;;;;;;;54.22;15.05;;;;;;;-146.27;100.00;48419.50;5087774;28;20422;-76
2023/03/03 07:49:55;;;;;;;36.20;14.70;;;;;;;-146.27;100.00;48415.53;5088378;28;20570;-76
2023/03/03 07:52:27;;;;;;;54.05;14.85;;;;;;;-146.27;100.00;48411.53;5085174;28;20365;-76
2023/03/03 07:54:56;;;;;;;34.40;13.95;;;;;;;-146.27;100.00;48439.41;5088271;28;20024;-75
2023/03/03 07:57:26;;;;;;;30.90;14.68;;;;;;;-146.27;100.00;48411.53;5077336;28;20029;-75
2023/03/03 07:59:51;;;;;;;40.45;14.68;;;;;;;-146.27;100.00;48399.59;5088712;28;20099;-76
2023/03/03 08:02:32;;;;;;;39.28;14.55;;;;;;;-146.27;100.00;48391.63;5086010;28;20111;-76
2023/03/03 08:04:57;;;;;;;41.50;14.48;;;;;;;-146.27;100.00;48457.34;5086573;28;20470;-75
2023/03/03 08:07:23;;;;;;;32.47;14.18;;;;;;;-146.27;100.00;48419.50;5088827;28;20051;-74
2023/03/03 08:09:55;;;;;;;32.83;14.98;;;;;;;-146.27;100.00;48435.44;5089639;28;20471;-76
2023/03/03 08:12:40;;;;;;;35.08;15.43;;;;;;;-146.27;100.00;48415.53;5088555;28;20035;-75
2023/03/03 08:15:21;;;;;;;31.85;13.13;;;;;;;-146.27;100.00;48367.72;5090369;28;20491;-76
2023/03/03 08:17:48;;;;;;;26.35;13.20;;;;;;;-146.27;100.00;48403.56;5088576;28;20112;-76
2023/03/03 08:20:34;;;;;;;30.92;13.27;;;;;;;-146.27;100.00;48417.50;5087116;28;20023;-76
2023/03/03 08:22:59;;;;;;;34.75;14.35;;;;;;;-146.27;100.00;48409.53;5088577;28;20556;-77
2023/03/03 08:25:25;;;;;;;30.83;13.15;;;;;;;-146.27;100.00;48401.56;5089164;28;20024;-75
2023/03/03 08:27:50;;;;;;;33.45;13.05;;;;;;;-146.27;100.00;48417.50;5088825;28;20028;-75
2023/03/03 08:30:16;;;;;;;29.40;14.48;;;;;;;-146.27;100.00;48441.41;5083738;28;20020;-77
2023/03/03 08:32:41;;;;;;;35.95;15.90;;;;;;;-146.27;100.00;48433.44;5084826;28;20031;-76
2023/03/03 08:35:07;;;;;;;24.25;12.85;;;;;;;-146.27;100.00;48427.47;5086448;28;20039;-77
2023/03/03 08:37:32;;;;;;;27.42;13.60;;;;;;;-146.27;100.00;48357.75;5085134;28;20036;-77
2023/03/03 08:39:57;;;;;;;29.92;13.07;;;;;;;-146.27;100.00;48379.66;5077079;28;20023;-76
2023/03/03 08:42:23;;;;;;;31.45;13.85;;;;;;;-146.27;100.00;48451.38;5082890;28;20368;-77
2023/03/03 08:44:48;;;;;;;27.75;13.38;;;;;;;-146.27;100.00;48415.53;5089455;28;20077;-75
2023/03/03 08:47:13;;;;;;;28.40;12.68;;;;;;;-146.27;100.00;48411.53;5090294;28;20102;-76
2023/03/03 08:49:39;;;;;;;26.80;12.60;;;;;;;-146.27;100.00;48413.53;5083876;28;20028;-76
2023/03/03 08:52:04;;;;;;;25.17;11.40;;;;;;;-146.27;100.00;48449.38;5084506;28;20478;-76
2023/03/03 08:54:31;;;;;;;21.15;11.45;;;;;;;-146.27;100.00;48411.53;5090436;28;20111;-75
2023/03/03 08:56:56;;;;;;;17.30;9.80;;;;;;;-146.27;100.00;48389.63;5081213;28;20020;-76
2023/03/03 08:59:22;;;;;;;18.08;8.45;;;;;;;-146.27;100.00;48411.53;5077726;28;20117;-77
2023/03/03 09:01:47;;;;;;;15.88;8.75;;;;;;;-146.27;100.00;48419.50;5087585;28;20020;-77
2023/03/03 09:04:12;;;;;;;15.77;8.45;;;;;;;-146.27;100.00;48415.53;5062430;28;21786;-76
2023/03/03 09:06:38;;;;;;;11.88;7.80;;;;;;;-146.27;100.00;48411.53;5071503;28;20060;-75
2023/03/03 09:09:03;;;;;;;15.95;7.63;;;;;;;-146.27;100.00;48403.56;5084206;28;20032;-77
2023/03/03 09:11:29;;;;;;;10.60;6.57;;;;;;;-146.27;100.00;48403.56;5087028;28;20077;-78
2023/03/03 09:14:16;;;;;;;12.05;6.95;;;;;;;-146.27;100.00;48395.59;5085939;28;20059;-77
2023/03/03 09:16:50;;;;;;;12.95;7.85;;;;;;;-146.27;100.00;48397.59;5089824;28;20019;-77
2023/03/03 09:19:22;;;;;;;10.70;6.35;;;;;;;-146.27;100.00;48409.53;5091217;28;20039;-78
2023/03/03 09:21:53;;;;;;;10.23;6.30;;;;;;;-146.27;100.00;48397.59;5090970;28;20436;-77
2023/03/03 09:24:30;;;;;;;10.05;5.97;;;;;;;-146.27;100.00;48427.47;5088462;28;20353;-77
2023/03/03 09:26:59;;;;;;;10.35;6.25;;;;;;;-146.27;100.00;48443.41;5085614;28;20383;-76
2023/03/03 09:29:36;;;;;;;12.75;7.07;;;;;;;-146.27;100.00;48363.75;5085975;28;20024;-77
2023/03/03 09:32:32;;;;;;;10.93;7.35;;;;;;;-146.27;100.00;48385.66;5087671;28;20411;-76
2023/03/03 09:34:59;;;;;;;10.13;5.95;;;;;;;-146.27;100.00;48387.63;5090311;28;20028;-77
2023/03/03 09:37:39;;;;;;;9.65;5.80;;;;;;;-146.27;100.00;48391.63;5092362;28;20039;-76
2023/03/03 09:40:47;;;;;;;9.25;4.80;;;;;;;-146.27;100.00;48399.59;5088997;28;20527;-76
2023/03/03 09:43:22;;;;;;;7.57;4.57;;;;;;;-146.27;100.00;48403.56;5059589;28;20717;-76
2023/03/03 09:46:08;;;;;;;8.90;4.90;;;;;;;-146.27;100.00;48383.66;5091530;28;20020;-76
2023/03/03 09:49:01;;;;;;;14.10;5.75;;;;;;;-146.27;100.00;48381.66;5089307;28;20502;-77
2023/03/03 09:51:45;;;;;;;11.45;5.10;;;;;;;-146.27;100.00;48371.69;5088495;28;20024;-76
2023/03/03 09:54:19;;;;;;;15.43;5.30;;;;;;;-146.27;100.00;48395.59;5090041;28;20115;-74
2023/03/03 09:57:05;;;;;;;7.40;4.53;;;;;;;-146.27;98.16;48391.63;5094015;28;20034;-77
2023/03/03 09:59:33;;;;;;;9.40;3.75;;;;;;;-146.27;98.35;48347.81;5091762;28;20483;-77
2023/03/03 10:02:07;;;;;;;5.28;3.97;;;;;;;-146.27;92.78;48395.59;5091915;28;20105;-76
2023/03/03 10:05:15;;;;;;;5.65;4.63;;;;;;;-146.27;94.14;48355.78;5092136;28;20024;-76
2023/03/03 10:07:40;;;;;;;7.57;3.78;;;;;;;-146.27;93.60;48375.69;5050489;28;20035;-76
2023/03/03 10:10:29;;;;;;;6.22;3.42;;;;;;;-146.27;93.11;48355.78;5040878;28;20040;-76
2023/03/03 10:13:36;;;;;;;5.53;2.90;;;;;;;-146.27;86.62;48397.59;5065197;28;20079;-68
2023/03/03 10:16:36;;;;;;;6.50;2.85;;;;;;;-146.27;86.45;48341.81;5088923;28;20074;-69
2023/03/03 10:19:13;;;;;;;7.13;2.92;;;;;;;-146.27;85.42;48343.81;5089294;28;20035;-68
2023/03/03 10:22:02;;;;;;;4.50;2.75;;;;;;;-146.27;83.43;48363.75;5087565;28;20039;-68
2023/03/03 10:24:43;;;;;;;13.20;3.13;;;;;;;-146.27;83.45;48345.81;5090269;28;20107;-70
2023/03/03 10:27:27;;;;;;;15.77;3.20;;;;;;;-146.27;83.45;48343.81;5083255;28;20062;-70
2023/03/03 10:29:52;;;;;;;;;;;;;;;-146.27;81.49;48361.75;5089839;28;20031;-69
2023/03/03 10:32:26;;;;;;;9.40;2.57;;;;;;;-146.27;77.89;48339.84;5087422;28;19912;-68
2023/03/03 10:34:51;;;;;;;5.78;2.50;;;;;;;-146.27;77.96;48305.97;5095700;28;20285;-69
2023/03/03 10:37:32;;;;;;;4.07;2.40;;;;;;;-146.27;76.88;48339.84;5089798;28;20046;-68
2023/03/03 10:40:28;;;;;;;2.97;1.90;;;;;;;-146.27;71.62;48294.03;5075917;28;20392;-69
2023/03/03 10:43:15;;;;;;;3.50;2.15;;;;;;;-146.27;71.28;48327.88;5086528;28;20032;-70
2023/03/03 10:45:59;;;;;;;9.80;2.03;;;;;;;-146.27;65.42;48315.94;5085442;28;20032;-69
2023/03/03 10:48:33;;;;;;;6.47;1.58;;;;;;;-146.27;61.00;48357.75;5087824;28;20039;-68
2023/03/03 10:51:14;;;;;;;3.83;1.65;;;;;;;-146.27;59.66;48351.78;5078077;28;20016;-68
2023/03/03 10:53:58;;;;;;;6.28;1.83;;;;;;;-146.27;59.14;48319.91;5081669;28;20032;-68
2023/03/03 10:56:54;;;;;;;2.47;1.70;;;;;;;-146.27;57.60;48313.94;5087829;28;20033;-68
2023/03/03 10:59:35;;;;;;;5.90;2.20;;;;;;;-146.27;61.70;48339.84;5083011;28;20020;-66
2023/03/03 11:02:11;;;;;;;7.80;2.22;;;;;;;-146.27;63.39;48311.94;5085115;28;20059;-68
2023/03/03 11:05:05;;;;;;;5.13;2.53;;;;;;;-146.27;65.67;48319.91;5081179;28;20032;-67
2023/03/03 11:07:36;;;;;;;5.45;3.20;;;;;;;-146.27;68.95;48315.94;5089340;28;20028;-69
2023/03/03 11:10:20;;;;;;;6.15;2.65;;;;;;;-146.27;69.00;48349.78;5090446;28;20035;-68
2023/03/03 11:13:27;;;;;;;4.82;3.22;;;;;;;-146.27;72.83;48363.75;5086199;28;20464;-68
2023/03/03 11:16:10;;;;;;;5.80;2.67;;;;;;;-146.27;73.92;48327.88;5088979;28;20123;-68